sensor_id;sensor_type;location;lat;lon;timestamp;P1;durP1;ratioP1;P2;durP2;ratioP2
20739;SDS011;10530;49.968;19.844;2023-05-07T00:03:11;20.60;;;8.23;;
20739;SDS011;10530;49.968;19.844;2023-05-07T00:08:15;21.30;;;8.30;;
20739;SDS011;10530;49.968;19.844;2023-05-07T00:13:18;20.20;;;8.43;;
20739;SDS011;10530;49.968;19.844;2023-05-07T00:18:21;23.95;;;8.65;;
20739;SDS011;10530;49.968;19.844;2023-05-07T00:23:24;21.20;;;8.40;;
20739;SDS011;10530;49.968;19.844;2023-05-07T00:28:27;19.85;;;7.95;;
20739;SDS011;10530;49.968;19.844;2023-05-07T00:33:30;18.87;;;7.40;;
20739;SDS011;10530;49.968;19.844;2023-05-07T00:38:32;21.00;;;8.35;;
20739;SDS011;10530;49.968;19.844;2023-05-07T00:43:35;21.83;;;8.38;;
20739;SDS011;10530;49.968;19.844;2023-05-07T00:48:38;18.57;;;8.77;;
20739;SDS011;10530;49.968;19.844;2023-05-07T00:53:41;20.27;;;7.95;;
20739;SDS011;10530;49.968;19.844;2023-05-07T00:58:44;24.33;;;9.17;;
20739;SDS011;10530;49.968;19.844;2023-05-07T01:03:46;24.75;;;8.80;;
20739;SDS011;10530;49.968;19.844;2023-05-07T01:08:50;21.65;;;9.00;;
20739;SDS011;10530;49.968;19.844;2023-05-07T01:13:54;24.83;;;10.03;;
20739;SDS011;10530;49.968;19.844;2023-05-07T01:18:58;22.08;;;8.57;;
20739;SDS011;10530;49.968;19.844;2023-05-07T01:24:02;21.00;;;8.63;;
20739;SDS011;10530;49.968;19.844;2023-05-07T01:29:07;21.52;;;9.10;;
20739;SDS011;10530;49.968;19.844;2023-05-07T01:34:10;22.88;;;9.23;;
20739;SDS011;10530;49.968;19.844;2023-05-07T01:39:15;23.50;;;9.27;;
20739;SDS011;10530;49.968;19.844;2023-05-07T01:44:19;29.55;;;11.65;;
20739;SDS011;10530;49.968;19.844;2023-05-07T01:49:21;28.77;;;12.03;;
20739;SDS011;10530;49.968;19.844;2023-05-07T01:54:25;27.90;;;11.70;;
20739;SDS011;10530;49.968;19.844;2023-05-07T01:59:32;25.90;;;10.48;;
20739;SDS011;10530;49.968;19.844;2023-05-07T02:04:35;25.80;;;11.03;;
20739;SDS011;10530;49.968;19.844;2023-05-07T02:09:39;23.75;;;10.80;;
20739;SDS011;10530;49.968;19.844;2023-05-07T02:14:42;27.10;;;10.23;;
20739;SDS011;10530;49.968;19.844;2023-05-07T02:19:45;26.48;;;10.55;;
20739;SDS011;10530;49.968;19.844;2023-05-07T02:24:48;17.58;;;7.82;;
20739;SDS011;10530;49.968;19.844;2023-05-07T02:29:51;19.20;;;7.90;;
20739;SDS011;10530;49.968;19.844;2023-05-07T02:34:53;18.13;;;7.55;;
20739;SDS011;10530;49.968;19.844;2023-05-07T02:39:56;21.37;;;7.83;;
20739;SDS011;10530;49.968;19.844;2023-05-07T02:44:59;20.63;;;8.00;;
20739;SDS011;10530;49.968;19.844;2023-05-07T02:50:03;17.67;;;7.82;;
20739;SDS011;10530;49.968;19.844;2023-05-07T02:55:07;19.13;;;7.90;;
20739;SDS011;10530;49.968;19.844;2023-05-07T03:00:13;18.48;;;7.35;;
20739;SDS011;10530;49.968;19.844;2023-05-07T03:05:25;18.30;;;7.10;;
20739;SDS011;10530;49.968;19.844;2023-05-07T03:10:28;17.95;;;7.43;;
20739;SDS011;10530;49.968;19.844;2023-05-07T03:15:31;16.23;;;7.07;;
20739;SDS011;10530;49.968;19.844;2023-05-07T03:20:34;18.23;;;6.83;;
20739;SDS011;10530;49.968;19.844;2023-05-07T03:25:38;17.55;;;7.53;;
20739;SDS011;10530;49.968;19.844;2023-05-07T03:30:41;15.23;;;6.73;;
20739;SDS011;10530;49.968;19.844;2023-05-07T03:35:44;14.60;;;6.07;;
20739;SDS011;10530;49.968;19.844;2023-05-07T03:40:52;17.15;;;6.20;;
20739;SDS011;10530;49.968;19.844;2023-05-07T03:45:55;12.37;;;5.23;;
20739;SDS011;10530;49.968;19.844;2023-05-07T03:51:00;14.25;;;5.53;;
20739;SDS011;10530;49.968;19.844;2023-05-07T03:56:06;15.60;;;5.37;;
20739;SDS011;10530;49.968;19.844;2023-05-07T04:01:12;11.93;;;5.30;;
20739;SDS011;10530;49.968;19.844;2023-05-07T04:06:15;13.55;;;4.50;;
20739;SDS011;10530;49.968;19.844;2023-05-07T04:11:22;9.00;;;3.90;;
20739;SDS011;10530;49.968;19.844;2023-05-07T04:16:24;8.38;;;3.78;;
20739;SDS011;10530;49.968;19.844;2023-05-07T04:21:27;9.00;;;3.83;;
20739;SDS011;10530;49.968;19.844;2023-05-07T04:26:31;8.43;;;3.25;;
20739;SDS011;10530;49.968;19.844;2023-05-07T04:31:34;6.07;;;2.40;;
20739;SDS011;10530;49.968;19.844;2023-05-07T04:36:38;6.73;;;2.53;;
20739;SDS011;10530;49.968;19.844;2023-05-07T04:41:45;6.00;;;2.53;;
20739;SDS011;10530;49.968;19.844;2023-05-07T04:46:48;5.10;;;2.33;;
20739;SDS011;10530;49.968;19.844;2023-05-07T04:51:51;6.75;;;2.67;;
20739;SDS011;10530;49.968;19.844;2023-05-07T04:56:56;5.57;;;2.20;;
20739;SDS011;10530;49.968;19.844;2023-05-07T05:01:59;5.47;;;2.20;;
20739;SDS011;10530;49.968;19.844;2023-05-07T05:07:03;5.82;;;2.40;;
20739;SDS011;10530;49.968;19.844;2023-05-07T05:12:06;6.37;;;2.10;;
20739;SDS011;10530;49.968;19.844;2023-05-07T05:17:12;5.95;;;2.42;;
20739;SDS011;10530;49.968;19.844;2023-05-07T05:22:15;6.28;;;2.20;;
20739;SDS011;10530;49.968;19.844;2023-05-07T05:27:17;6.60;;;2.20;;
20739;SDS011;10530;49.968;19.844;2023-05-07T05:32:21;4.35;;;2.05;;
20739;SDS011;10530;49.968;19.844;2023-05-07T05:37:27;5.57;;;2.20;;
20739;SDS011;10530;49.968;19.844;2023-05-07T05:42:33;4.95;;;2.00;;
20739;SDS011;10530;49.968;19.844;2023-05-07T05:47:37;4.75;;;2.20;;
20739;SDS011;10530;49.968;19.844;2023-05-07T05:52:41;5.40;;;1.93;;
20739;SDS011;10530;49.968;19.844;2023-05-07T05:57:45;6.03;;;2.70;;
20739;SDS011;10530;49.968;19.844;2023-05-07T06:02:48;3.93;;;1.87;;
20739;SDS011;10530;49.968;19.844;2023-05-07T06:07:57;6.20;;;2.15;;
20739;SDS011;10530;49.968;19.844;2023-05-07T06:13:03;5.22;;;2.08;;
20739;SDS011;10530;49.968;19.844;2023-05-07T06:18:08;7.43;;;2.27;;
20739;SDS011;10530;49.968;19.844;2023-05-07T06:23:11;4.53;;;1.83;;
20739;SDS011;10530;49.968;19.844;2023-05-07T06:28:17;4.80;;;1.87;;
20739;SDS011;10530;49.968;19.844;2023-05-07T06:33:21;5.00;;;1.75;;
20739;SDS011;10530;49.968;19.844;2023-05-07T06:38:23;4.05;;;1.50;;
20739;SDS011;10530;49.968;19.844;2023-05-07T06:43:27;5.27;;;1.23;;
20739;SDS011;10530;49.968;19.844;2023-05-07T06:49:08;4.80;;;1.85;;
20739;SDS011;10530;49.968;19.844;2023-05-07T06:54:11;4.03;;;1.60;;
20739;SDS011;10530;49.968;19.844;2023-05-07T06:59:15;3.90;;;1.70;;
20739;SDS011;10530;49.968;19.844;2023-05-07T07:04:18;5.10;;;1.67;;
20739;SDS011;10530;49.968;19.844;2023-05-07T07:09:28;4.00;;;1.57;;
20739;SDS011;10530;49.968;19.844;2023-05-07T07:14:32;5.18;;;2.00;;
20739;SDS011;10530;49.968;19.844;2023-05-07T07:19:35;3.90;;;2.07;;
20739;SDS011;10530;49.968;19.844;2023-05-07T07:24:38;4.85;;;1.50;;
20739;SDS011;10530;49.968;19.844;2023-05-07T07:29:44;4.55;;;1.75;;
20739;SDS011;10530;49.968;19.844;2023-05-07T07:34:47;5.27;;;1.93;;
20739;SDS011;10530;49.968;19.844;2023-05-07T07:39:50;5.57;;;2.30;;
20739;SDS011;10530;49.968;19.844;2023-05-07T07:44:54;5.90;;;2.40;;
20739;SDS011;10530;49.968;19.844;2023-05-07T07:50:02;5.60;;;2.17;;
20739;SDS011;10530;49.968;19.844;2023-05-07T07:55:05;4.13;;;1.95;;
20739;SDS011;10530;49.968;19.844;2023-05-07T08:00:10;4.47;;;1.57;;
20739;SDS011;10530;49.968;19.844;2023-05-07T08:05:23;4.40;;;1.88;;
20739;SDS011;10530;49.968;19.844;2023-05-07T08:10:27;4.50;;;1.90;;
20739;SDS011;10530;49.968;19.844;2023-05-07T08:15:38;6.63;;;2.35;;
20739;SDS011;10530;49.968;19.844;2023-05-07T08:20:41;5.20;;;2.30;;
20739;SDS011;10530;49.968;19.844;2023-05-07T08:25:49;5.57;;;2.20;;
20739;SDS011;10530;49.968;19.844;2023-05-07T08:30:54;5.30;;;2.00;;
20739;SDS011;10530;49.968;19.844;2023-05-07T08:35:59;5.27;;;2.10;;
20739;SDS011;10530;49.968;19.844;2023-05-07T08:41:02;4.90;;;2.30;;
20739;SDS011;10530;49.968;19.844;2023-05-07T08:46:05;5.43;;;2.03;;
20739;SDS011;10530;49.968;19.844;2023-05-07T08:51:16;6.13;;;2.17;;
20739;SDS011;10530;49.968;19.844;2023-05-07T08:56:23;5.95;;;2.42;;
20739;SDS011;10530;49.968;19.844;2023-05-07T09:01:28;5.90;;;2.60;;
20739;SDS011;10530;49.968;19.844;2023-05-07T09:06:32;7.22;;;2.40;;
20739;SDS011;10530;49.968;19.844;2023-05-07T09:11:36;7.00;;;2.92;;
20739;SDS011;10530;49.968;19.844;2023-05-07T09:16:39;6.07;;;2.50;;
20739;SDS011;10530;49.968;19.844;2023-05-07T09:21:42;7.63;;;2.40;;
20739;SDS011;10530;49.968;19.844;2023-05-07T09:26:47;8.13;;;3.43;;
20739;SDS011;10530;49.968;19.844;2023-05-07T09:31:50;8.38;;;3.22;;
20739;SDS011;10530;49.968;19.844;2023-05-07T09:36:54;7.25;;;3.30;;
20739;SDS011;10530;49.968;19.844;2023-05-07T09:41:58;8.80;;;3.83;;
20739;SDS011;10530;49.968;19.844;2023-05-07T09:47:08;7.35;;;2.95;;
20739;SDS011;10530;49.968;19.844;2023-05-07T09:52:18;8.10;;;3.43;;
20739;SDS011;10530;49.968;19.844;2023-05-07T09:57:26;9.18;;;3.55;;
20739;SDS011;10530;49.968;19.844;2023-05-07T10:02:35;8.32;;;3.67;;
20739;SDS011;10530;49.968;19.844;2023-05-07T10:07:39;7.50;;;3.07;;
20739;SDS011;10530;49.968;19.844;2023-05-07T10:12:44;8.07;;;3.17;;
20739;SDS011;10530;49.968;19.844;2023-05-07T10:17:58;7.03;;;2.70;;
20739;SDS011;10530;49.968;19.844;2023-05-07T10:23:03;5.50;;;2.63;;
20739;SDS011;10530;49.968;19.844;2023-05-07T10:28:14;5.65;;;2.78;;
20739;SDS011;10530;49.968;19.844;2023-05-07T10:33:21;6.20;;;2.80;;
20739;SDS011;10530;49.968;19.844;2023-05-07T10:38:29;8.57;;;3.05;;
20739;SDS011;10530;49.968;19.844;2023-05-07T10:43:40;6.87;;;2.70;;
20739;SDS011;10530;49.968;19.844;2023-05-07T10:54:30;5.85;;;2.60;;
20739;SDS011;10530;49.968;19.844;2023-05-07T10:59:43;4.93;;;1.97;;
20739;SDS011;10530;49.968;19.844;2023-05-07T11:16:22;6.57;;;2.58;;
20739;SDS011;10530;49.968;19.844;2023-05-07T11:26:54;7.33;;;3.30;;
20739;SDS011;10530;49.968;19.844;2023-05-07T11:32:00;8.43;;;2.90;;
20739;SDS011;10530;49.968;19.844;2023-05-07T11:37:11;5.67;;;2.67;;
20739;SDS011;10530;49.968;19.844;2023-05-07T11:42:49;8.07;;;3.20;;
20739;SDS011;10530;49.968;19.844;2023-05-07T11:47:48;6.57;;;3.25;;
20739;SDS011;10530;49.968;19.844;2023-05-07T11:52:51;7.30;;;2.87;;
20739;SDS011;10530;49.968;19.844;2023-05-07T11:57:54;9.05;;;4.55;;
20739;SDS011;10530;49.968;19.844;2023-05-07T12:03:02;8.47;;;3.80;;
20739;SDS011;10530;49.968;19.844;2023-05-07T12:08:08;8.15;;;3.40;;
20739;SDS011;10530;49.968;19.844;2023-05-07T12:13:17;8.45;;;3.45;;
20739;SDS011;10530;49.968;19.844;2023-05-07T12:18:22;8.07;;;3.40;;
20739;SDS011;10530;49.968;19.844;2023-05-07T12:23:25;6.60;;;2.75;;
20739;SDS011;10530;49.968;19.844;2023-05-07T12:28:29;6.83;;;2.93;;
20739;SDS011;10530;49.968;19.844;2023-05-07T12:33:32;7.78;;;3.22;;
20739;SDS011;10530;49.968;19.844;2023-05-07T12:38:37;7.45;;;3.65;;
20739;SDS011;10530;49.968;19.844;2023-05-07T12:43:44;6.00;;;3.10;;
20739;SDS011;10530;49.968;19.844;2023-05-07T12:48:48;7.30;;;2.65;;
20739;SDS011;10530;49.968;19.844;2023-05-07T12:53:50;6.00;;;2.33;;
20739;SDS011;10530;49.968;19.844;2023-05-07T12:58:59;4.10;;;1.50;;
20739;SDS011;10530;49.968;19.844;2023-05-07T13:04:02;5.88;;;2.60;;
20739;SDS011;10530;49.968;19.844;2023-05-07T13:09:06;5.47;;;2.73;;
20739;SDS011;10530;49.968;19.844;2023-05-07T13:14:08;5.07;;;2.35;;
20739;SDS011;10530;49.968;19.844;2023-05-07T13:19:11;4.60;;;1.63;;
20739;SDS011;10530;49.968;19.844;2023-05-07T13:24:14;6.50;;;2.30;;
20739;SDS011;10530;49.968;19.844;2023-05-07T13:29:17;7.25;;;2.45;;
20739;SDS011;10530;49.968;19.844;2023-05-07T13:34:20;4.77;;;1.77;;
20739;SDS011;10530;49.968;19.844;2023-05-07T13:39:22;7.57;;;2.50;;
20739;SDS011;10530;49.968;19.844;2023-05-07T13:44:26;3.03;;;1.00;;
20739;SDS011;10530;49.968;19.844;2023-05-07T13:49:29;3.72;;;1.90;;
20739;SDS011;10530;49.968;19.844;2023-05-07T13:54:32;8.05;;;3.58;;
20739;SDS011;10530;49.968;19.844;2023-05-07T13:59:35;8.83;;;3.43;;
20739;SDS011;10530;49.968;19.844;2023-05-07T14:04:37;11.13;;;5.55;;
20739;SDS011;10530;49.968;19.844;2023-05-07T14:09:40;6.90;;;2.87;;
20739;SDS011;10530;49.968;19.844;2023-05-07T14:14:43;5.85;;;2.75;;
20739;SDS011;10530;49.968;19.844;2023-05-07T14:19:47;2.95;;;1.08;;
20739;SDS011;10530;49.968;19.844;2023-05-07T14:24:50;9.40;;;3.67;;
20739;SDS011;10530;49.968;19.844;2023-05-07T14:30:07;13.70;;;6.07;;
20739;SDS011;10530;49.968;19.844;2023-05-07T14:35:10;8.33;;;3.43;;
20739;SDS011;10530;49.968;19.844;2023-05-07T14:40:14;7.97;;;3.97;;
20739;SDS011;10530;49.968;19.844;2023-05-07T14:45:17;7.40;;;3.30;;
20739;SDS011;10530;49.968;19.844;2023-05-07T14:50:20;5.37;;;2.70;;
20739;SDS011;10530;49.968;19.844;2023-05-07T14:55:23;6.82;;;3.03;;
20739;SDS011;10530;49.968;19.844;2023-05-07T15:00:26;6.83;;;3.20;;
20739;SDS011;10530;49.968;19.844;2023-05-07T15:05:30;7.68;;;3.30;;
20739;SDS011;10530;49.968;19.844;2023-05-07T15:10:36;5.70;;;2.78;;
20739;SDS011;10530;49.968;19.844;2023-05-07T15:15:44;14.90;;;5.17;;
20739;SDS011;10530;49.968;19.844;2023-05-07T15:20:47;10.38;;;3.97;;
20739;SDS011;10530;49.968;19.844;2023-05-07T15:25:50;7.00;;;2.90;;
20739;SDS011;10530;49.968;19.844;2023-05-07T15:30:54;6.32;;;3.20;;
20739;SDS011;10530;49.968;19.844;2023-05-07T15:35:57;7.45;;;3.65;;
20739;SDS011;10530;49.968;19.844;2023-05-07T15:41:01;7.20;;;3.30;;
20739;SDS011;10530;49.968;19.844;2023-05-07T15:46:04;6.93;;;3.28;;
20739;SDS011;10530;49.968;19.844;2023-05-07T15:51:08;7.43;;;3.03;;
20739;SDS011;10530;49.968;19.844;2023-05-07T15:56:11;8.85;;;3.92;;
20739;SDS011;10530;49.968;19.844;2023-05-07T16:01:14;6.35;;;2.33;;
20739;SDS011;10530;49.968;19.844;2023-05-07T16:06:18;7.63;;;3.33;;
20739;SDS011;10530;49.968;19.844;2023-05-07T16:11:21;8.50;;;3.13;;
20739;SDS011;10530;49.968;19.844;2023-05-07T16:16:23;8.67;;;3.83;;
20739;SDS011;10530;49.968;19.844;2023-05-07T16:21:31;9.10;;;2.88;;
20739;SDS011;10530;49.968;19.844;2023-05-07T16:26:34;9.68;;;4.18;;
20739;SDS011;10530;49.968;19.844;2023-05-07T16:31:37;8.93;;;3.73;;
20739;SDS011;10530;49.968;19.844;2023-05-07T16:36:40;9.13;;;3.45;;
20739;SDS011;10530;49.968;19.844;2023-05-07T16:41:44;9.13;;;3.40;;
20739;SDS011;10530;49.968;19.844;2023-05-07T16:46:49;8.63;;;3.38;;
20739;SDS011;10530;49.968;19.844;2023-05-07T16:51:54;9.32;;;3.33;;
20739;SDS011;10530;49.968;19.844;2023-05-07T16:56:56;8.03;;;3.33;;
20739;SDS011;10530;49.968;19.844;2023-05-07T17:02:00;8.02;;;3.58;;
20739;SDS011;10530;49.968;19.844;2023-05-07T17:07:03;10.00;;;4.47;;
20739;SDS011;10530;49.968;19.844;2023-05-07T17:12:07;11.73;;;3.80;;
20739;SDS011;10530;49.968;19.844;2023-05-07T17:17:10;8.98;;;3.95;;
20739;SDS011;10530;49.968;19.844;2023-05-07T17:22:13;9.57;;;3.67;;
20739;SDS011;10530;49.968;19.844;2023-05-07T17:27:15;11.68;;;4.47;;
20739;SDS011;10530;49.968;19.844;2023-05-07T17:32:18;9.80;;;4.07;;
20739;SDS011;10530;49.968;19.844;2023-05-07T17:37:22;7.32;;;3.13;;
20739;SDS011;10530;49.968;19.844;2023-05-07T17:42:25;10.77;;;3.72;;
20739;SDS011;10530;49.968;19.844;2023-05-07T17:47:27;10.50;;;4.20;;
20739;SDS011;10530;49.968;19.844;2023-05-07T17:52:31;8.82;;;4.25;;
20739;SDS011;10530;49.968;19.844;2023-05-07T17:57:34;12.63;;;5.10;;
20739;SDS011;10530;49.968;19.844;2023-05-07T18:02:38;6.00;;;2.15;;
20739;SDS011;10530;49.968;19.844;2023-05-07T18:07:42;5.50;;;2.38;;
20739;SDS011;10530;49.968;19.844;2023-05-07T18:12:45;10.90;;;4.33;;
20739;SDS011;10530;49.968;19.844;2023-05-07T18:17:48;14.52;;;5.28;;
20739;SDS011;10530;49.968;19.844;2023-05-07T18:22:51;11.73;;;5.10;;
20739;SDS011;10530;49.968;19.844;2023-05-07T18:27:54;7.55;;;2.92;;
20739;SDS011;10530;49.968;19.844;2023-05-07T18:32:57;6.20;;;3.05;;
20739;SDS011;10530;49.968;19.844;2023-05-07T18:38:01;6.47;;;2.87;;
20739;SDS011;10530;49.968;19.844;2023-05-07T18:43:03;7.45;;;2.80;;
20739;SDS011;10530;49.968;19.844;2023-05-07T18:48:08;5.17;;;2.20;;
20739;SDS011;10530;49.968;19.844;2023-05-07T18:53:11;9.00;;;3.90;;
20739;SDS011;10530;49.968;19.844;2023-05-07T18:58:14;11.10;;;4.93;;
20739;SDS011;10530;49.968;19.844;2023-05-07T19:03:19;10.67;;;4.77;;
20739;SDS011;10530;49.968;19.844;2023-05-07T19:08:22;10.32;;;5.07;;
20739;SDS011;10530;49.968;19.844;2023-05-07T19:13:25;13.20;;;5.23;;
20739;SDS011;10530;49.968;19.844;2023-05-07T19:18:28;13.30;;;4.88;;
20739;SDS011;10530;49.968;19.844;2023-05-07T19:23:33;10.88;;;4.75;;
20739;SDS011;10530;49.968;19.844;2023-05-07T19:28:42;9.70;;;3.67;;
20739;SDS011;10530;49.968;19.844;2023-05-07T19:33:49;11.48;;;4.15;;
20739;SDS011;10530;49.968;19.844;2023-05-07T19:38:52;10.37;;;4.23;;
20739;SDS011;10530;49.968;19.844;2023-05-07T19:43:55;14.90;;;3.70;;
20739;SDS011;10530;49.968;19.844;2023-05-07T19:48:58;8.80;;;4.00;;
20739;SDS011;10530;49.968;19.844;2023-05-07T19:54:02;11.57;;;4.50;;
20739;SDS011;10530;49.968;19.844;2023-05-07T19:59:06;9.43;;;3.88;;
20739;SDS011;10530;49.968;19.844;2023-05-07T20:04:09;10.20;;;4.00;;
20739;SDS011;10530;49.968;19.844;2023-05-07T20:09:12;7.40;;;3.05;;
20739;SDS011;10530;49.968;19.844;2023-05-07T20:14:15;7.40;;;3.38;;
20739;SDS011;10530;49.968;19.844;2023-05-07T20:19:18;6.93;;;2.73;;
20739;SDS011;10530;49.968;19.844;2023-05-07T20:24:21;7.85;;;3.30;;
20739;SDS011;10530;49.968;19.844;2023-05-07T20:29:24;7.37;;;2.80;;
20739;SDS011;10530;49.968;19.844;2023-05-07T20:34:29;6.60;;;2.97;;
20739;SDS011;10530;49.968;19.844;2023-05-07T20:39:32;6.88;;;2.03;;
20739;SDS011;10530;49.968;19.844;2023-05-07T20:44:35;7.63;;;3.13;;
20739;SDS011;10530;49.968;19.844;2023-05-07T20:49:38;7.82;;;2.88;;
20739;SDS011;10530;49.968;19.844;2023-05-07T20:54:41;8.40;;;3.40;;
20739;SDS011;10530;49.968;19.844;2023-05-07T20:59:45;5.38;;;2.38;;
20739;SDS011;10530;49.968;19.844;2023-05-07T21:04:48;7.18;;;2.88;;
20739;SDS011;10530;49.968;19.844;2023-05-07T21:09:53;10.73;;;3.83;;
20739;SDS011;10530;49.968;19.844;2023-05-07T21:14:56;6.80;;;3.15;;
20739;SDS011;10530;49.968;19.844;2023-05-07T21:19:59;6.77;;;3.17;;
20739;SDS011;10530;49.968;19.844;2023-05-07T21:25:03;9.20;;;3.97;;
20739;SDS011;10530;49.968;19.844;2023-05-07T21:30:06;8.20;;;3.40;;
20739;SDS011;10530;49.968;19.844;2023-05-07T21:35:10;5.97;;;2.80;;
20739;SDS011;10530;49.968;19.844;2023-05-07T21:40:12;7.13;;;3.45;;
20739;SDS011;10530;49.968;19.844;2023-05-07T21:45:16;8.87;;;3.93;;
20739;SDS011;10530;49.968;19.844;2023-05-07T21:50:19;3.38;;;1.20;;
20739;SDS011;10530;49.968;19.844;2023-05-07T21:55:23;8.38;;;3.78;;
20739;SDS011;10530;49.968;19.844;2023-05-07T22:00:25;8.13;;;3.07;;
20739;SDS011;10530;49.968;19.844;2023-05-07T22:05:28;6.80;;;3.42;;
20739;SDS011;10530;49.968;19.844;2023-05-07T22:10:31;7.80;;;3.37;;
20739;SDS011;10530;49.968;19.844;2023-05-07T22:15:34;6.45;;;2.90;;
20739;SDS011;10530;49.968;19.844;2023-05-07T22:20:54;7.47;;;3.03;;
20739;SDS011;10530;49.968;19.844;2023-05-07T22:25:57;6.90;;;3.07;;
20739;SDS011;10530;49.968;19.844;2023-05-07T22:31:00;8.85;;;3.45;;
20739;SDS011;10530;49.968;19.844;2023-05-07T22:36:03;6.90;;;2.83;;
20739;SDS011;10530;49.968;19.844;2023-05-07T22:41:06;6.78;;;2.78;;
20739;SDS011;10530;49.968;19.844;2023-05-07T22:46:08;4.15;;;1.52;;
20739;SDS011;10530;49.968;19.844;2023-05-07T22:51:12;5.97;;;2.57;;
20739;SDS011;10530;49.968;19.844;2023-05-07T22:56:15;5.45;;;2.00;;
20739;SDS011;10530;49.968;19.844;2023-05-07T23:01:18;5.67;;;2.30;;
20739;SDS011;10530;49.968;19.844;2023-05-07T23:06:22;6.82;;;2.42;;
20739;SDS011;10530;49.968;19.844;2023-05-07T23:11:25;8.55;;;2.95;;
20739;SDS011;10530;49.968;19.844;2023-05-07T23:16:29;6.53;;;2.70;;
20739;SDS011;10530;49.968;19.844;2023-05-07T23:21:32;5.60;;;2.78;;
20739;SDS011;10530;49.968;19.844;2023-05-07T23:26:35;6.10;;;2.43;;
20739;SDS011;10530;49.968;19.844;2023-05-07T23:31:37;5.35;;;2.40;;
20739;SDS011;10530;49.968;19.844;2023-05-07T23:36:40;5.72;;;2.60;;
20739;SDS011;10530;49.968;19.844;2023-05-07T23:41:43;5.80;;;2.17;;
20739;SDS011;10530;49.968;19.844;2023-05-07T23:46:45;4.78;;;1.88;;
20739;SDS011;10530;49.968;19.844;2023-05-07T23:51:49;4.07;;;1.70;;
20739;SDS011;10530;49.968;19.844;2023-05-07T23:56:52;9.75;;;3.50;;
